sensor_id;sensor_type;location;lat;lon;timestamp;pressure;altitude;pressure_sealevel;temperature;humidity
47785;BME280;35233;55.686;37.848;2023-11-21T00:02:04;99271.63;;;2.71;41.06
47785;BME280;35233;55.686;37.848;2023-11-21T00:04:30;99262.06;;;2.64;41.02
47785;BME280;35233;55.686;37.848;2023-11-21T00:06:55;99269.03;;;2.65;41.70
47785;BME280;35233;55.686;37.848;2023-11-21T00:09:20;99260.31;;;2.66;40.98
47785;BME280;35233;55.686;37.848;2023-11-21T00:11:47;99262.06;;;2.64;41.35
47785;BME280;35233;55.686;37.848;2023-11-21T00:14:12;99258.59;;;2.62;41.38
47785;BME280;35233;55.686;37.848;2023-11-21T00:16:40;99244.72;;;2.49;40.97
47785;BME280;35233;55.686;37.848;2023-11-21T00:19:05;99265.53;;;2.66;41.32
47785;BME280;35233;55.686;37.848;2023-11-21T00:21:31;99256.00;;;2.55;41.24
47785;BME280;35233;55.686;37.848;2023-11-21T00:23:56;99249.91;;;2.49;41.05
47785;BME280;35233;55.686;37.848;2023-11-21T00:26:22;99262.97;;;2.54;41.74
47785;BME280;35233;55.686;37.848;2023-11-21T00:28:48;99262.09;;;2.57;41.14
47785;BME280;35233;55.686;37.848;2023-11-21T00:31:14;99265.56;;;2.57;41.64
47785;BME280;35233;55.686;37.848;2023-11-21T00:33:39;99256.88;;;2.52;41.69
47785;BME280;35233;55.686;37.848;2023-11-21T00:36:05;99275.97;;;2.59;41.22
47785;BME280;35233;55.686;37.848;2023-11-21T00:38:35;99270.78;;;2.57;41.37
47785;BME280;35233;55.686;37.848;2023-11-21T00:41:01;99268.16;;;2.57;41.60
47785;BME280;35233;55.686;37.848;2023-11-21T00:43:26;99262.94;;;2.56;41.26
47785;BME280;35233;55.686;37.848;2023-11-21T00:45:51;99249.91;;;2.53;41.24
47785;BME280;35233;55.686;37.848;2023-11-21T00:48:17;99248.19;;;2.47;41.76
47785;BME280;35233;55.686;37.848;2023-11-21T00:50:43;99260.34;;;2.49;41.57
47785;BME280;35233;55.686;37.848;2023-11-21T00:53:09;99260.34;;;2.53;41.01
47785;BME280;35233;55.686;37.848;2023-11-21T00:55:36;99243.00;;;2.42;41.62
47785;BME280;35233;55.686;37.848;2023-11-21T00:58:01;99235.19;;;2.38;41.04
47785;BME280;35233;55.686;37.848;2023-11-21T01:00:29;99256.03;;;2.45;41.75
47785;BME280;35233;55.686;37.848;2023-11-21T01:02:55;99262.09;;;2.43;41.53
47785;BME280;35233;55.686;37.848;2023-11-21T01:05:20;99265.59;;;2.45;41.40
47785;BME280;35233;55.686;37.848;2023-11-21T01:07:46;99250.81;;;2.44;41.04
47785;BME280;35233;55.686;37.848;2023-11-21T01:10:11;99266.44;;;2.50;40.89
47785;BME280;35233;55.686;37.848;2023-11-21T01:12:37;99268.16;;;2.53;41.50
47785;BME280;35233;55.686;37.848;2023-11-21T01:15:05;99269.06;;;2.42;41.08
47785;BME280;35233;55.686;37.848;2023-11-21T01:17:32;99256.03;;;2.35;41.71
47785;BME280;35233;55.686;37.848;2023-11-21T01:20:00;99248.22;;;2.35;41.30
47785;BME280;35233;55.686;37.848;2023-11-21T01:22:26;99255.16;;;2.45;41.37
47785;BME280;35233;55.686;37.848;2023-11-21T01:24:53;99252.53;;;2.43;41.55
47785;BME280;35233;55.686;37.848;2023-11-21T01:27:18;99258.63;;;2.42;40.89
47785;BME280;35233;55.686;37.848;2023-11-21T01:29:44;99254.28;;;2.46;40.88
47785;BME280;35233;55.686;37.848;2023-11-21T01:32:10;99250.81;;;2.41;41.22
47785;BME280;35233;55.686;37.848;2023-11-21T01:34:35;99257.75;;;2.43;41.40
47785;BME280;35233;55.686;37.848;2023-11-21T01:37:01;99255.16;;;2.42;41.38
47785;BME280;35233;55.686;37.848;2023-11-21T01:39:30;99249.97;;;2.42;41.16
47785;BME280;35233;55.686;37.848;2023-11-21T01:41:55;99245.59;;;2.42;41.15
47785;BME280;35233;55.686;37.848;2023-11-21T01:44:26;99248.22;;;2.39;41.35
47785;BME280;35233;55.686;37.848;2023-11-21T01:46:52;99236.06;;;2.34;40.88
47785;BME280;35233;55.686;37.848;2023-11-21T01:49:19;99258.63;;;2.41;41.21
47785;BME280;35233;55.686;37.848;2023-11-21T01:51:47;99257.78;;;2.37;41.12
47785;BME280;35233;55.686;37.848;2023-11-21T01:54:16;99259.50;;;2.41;41.37
47785;BME280;35233;55.686;37.848;2023-11-21T01:56:45;99256.91;;;2.26;41.69
47785;BME280;35233;55.686;37.848;2023-11-21T01:59:12;99249.13;;;2.24;41.42
47785;BME280;35233;55.686;37.848;2023-11-21T02:01:39;99263.88;;;2.25;41.41
47785;BME280;35233;55.686;37.848;2023-11-21T02:04:06;99254.31;;;2.24;41.08
47785;BME280;35233;55.686;37.848;2023-11-21T02:06:33;99256.94;;;2.24;41.48
47785;BME280;35233;55.686;37.848;2023-11-21T02:08:59;99236.94;;;2.22;41.36
47785;BME280;35233;55.686;37.848;2023-11-21T02:11:25;99269.97;;;2.31;41.11
47785;BME280;35233;55.686;37.848;2023-11-21T02:13:52;99256.03;;;2.29;41.50
47785;BME280;35233;55.686;37.848;2023-11-21T02:16:19;99243.88;;;2.23;40.95
47785;BME280;35233;55.686;37.848;2023-11-21T02:18:47;99249.13;;;2.24;41.52
47785;BME280;35233;55.686;37.848;2023-11-21T02:21:14;99245.63;;;2.30;41.11
47785;BME280;35233;55.686;37.848;2023-11-21T02:23:39;99262.13;;;2.37;41.29
47785;BME280;35233;55.686;37.848;2023-11-21T02:26:09;99258.66;;;2.36;40.92
47785;BME280;35233;55.686;37.848;2023-11-21T02:28:35;99258.66;;;2.29;41.29
47785;BME280;35233;55.686;37.848;2023-11-21T02:31:01;99247.38;;;2.25;40.98
47785;BME280;35233;55.686;37.848;2023-11-21T02:33:28;99256.94;;;2.17;41.43
47785;BME280;35233;55.686;37.848;2023-11-21T02:35:53;99263.00;;;2.19;41.33
47785;BME280;35233;55.686;37.848;2023-11-21T02:38:21;99256.94;;;2.20;41.30
47785;BME280;35233;55.686;37.848;2023-11-21T02:40:47;99263.00;;;2.22;41.67
47785;BME280;35233;55.686;37.848;2023-11-21T02:43:14;99260.41;;;2.14;41.58
47785;BME280;35233;55.686;37.848;2023-11-21T02:45:39;99270.81;;;2.20;41.24
47785;BME280;35233;55.686;37.848;2023-11-21T02:48:07;99258.69;;;2.16;41.17
47785;BME280;35233;55.686;37.848;2023-11-21T02:50:32;99269.94;;;2.23;41.37
47785;BME280;35233;55.686;37.848;2023-11-21T02:52:58;99262.13;;;2.09;41.27
47785;BME280;35233;55.686;37.848;2023-11-21T02:55:26;99269.94;;;2.09;41.47
47785;BME280;35233;55.686;37.848;2023-11-21T02:57:51;99275.16;;;2.09;41.07
47785;BME280;35233;55.686;37.848;2023-11-21T03:00:17;99279.53;;;2.07;41.32
47785;BME280;35233;55.686;37.848;2023-11-21T03:02:43;99286.47;;;2.05;40.91
47785;BME280;35233;55.686;37.848;2023-11-21T03:05:09;99281.28;;;2.07;40.94
47785;BME280;35233;55.686;37.848;2023-11-21T03:07:37;99295.16;;;2.16;40.74
47785;BME280;35233;55.686;37.848;2023-11-21T03:10:03;99289.94;;;2.15;40.77
47785;BME280;35233;55.686;37.848;2023-11-21T03:12:29;99278.63;;;2.03;40.58
47785;BME280;35233;55.686;37.848;2023-11-21T03:14:55;99302.97;;;2.12;40.80
47785;BME280;35233;55.686;37.848;2023-11-21T03:17:21;99296.03;;;2.08;40.88
47785;BME280;35233;55.686;37.848;2023-11-21T03:19:48;99301.22;;;2.09;40.79
47785;BME280;35233;55.686;37.848;2023-11-21T03:22:14;99305.56;;;2.16;41.04
47785;BME280;35233;55.686;37.848;2023-11-21T03:24:39;99301.25;;;2.15;41.15
47785;BME280;35233;55.686;37.848;2023-11-21T03:27:05;99296.88;;;2.17;41.38
47785;BME280;35233;55.686;37.848;2023-11-21T03:29:30;99307.31;;;2.08;41.17
47785;BME280;35233;55.686;37.848;2023-11-21T03:31:56;99309.06;;;1.98;40.39
47785;BME280;35233;55.686;37.848;2023-11-21T03:34:27;99309.91;;;1.96;40.87
47785;BME280;35233;55.686;37.848;2023-11-21T03:36:53;99311.63;;;2.00;40.96
47785;BME280;35233;55.686;37.848;2023-11-21T03:39:22;99314.25;;;2.06;40.64
47785;BME280;35233;55.686;37.848;2023-11-21T03:41:48;99318.59;;;2.07;40.75
47785;BME280;35233;55.686;37.848;2023-11-21T03:44:14;99318.59;;;2.06;40.98
47785;BME280;35233;55.686;37.848;2023-11-21T03:46:40;99305.56;;;1.99;40.84
47785;BME280;35233;55.686;37.848;2023-11-21T03:49:06;99307.31;;;2.05;40.93
47785;BME280;35233;55.686;37.848;2023-11-21T03:51:31;99323.81;;;2.12;40.92
47785;BME280;35233;55.686;37.848;2023-11-21T03:53:56;99316.88;;;2.08;41.07
47785;BME280;35233;55.686;37.848;2023-11-21T03:56:22;99314.25;;;2.14;40.62
47785;BME280;35233;55.686;37.848;2023-11-21T03:58:48;99315.13;;;2.11;40.49
47785;BME280;35233;55.686;37.848;2023-11-21T04:01:23;99311.63;;;2.06;40.77
47785;BME280;35233;55.686;37.848;2023-11-21T04:03:50;99314.25;;;2.00;40.92
47785;BME280;35233;55.686;37.848;2023-11-21T04:06:16;99305.56;;;1.99;40.54
47785;BME280;35233;55.686;37.848;2023-11-21T04:08:43;99285.59;;;1.89;41.03
47785;BME280;35233;55.686;37.848;2023-11-21T04:11:10;99303.84;;;1.98;40.67
47785;BME280;35233;55.686;37.848;2023-11-21T04:13:38;99319.47;;;1.95;40.75
47785;BME280;35233;55.686;37.848;2023-11-21T04:16:05;99320.34;;;1.99;40.94
47785;BME280;35233;55.686;37.848;2023-11-21T04:18:31;99306.44;;;1.91;40.79
47785;BME280;35233;55.686;37.848;2023-11-21T04:20:57;99315.97;;;1.96;40.64
47785;BME280;35233;55.686;37.848;2023-11-21T04:23:22;99311.66;;;1.98;40.92
47785;BME280;35233;55.686;37.848;2023-11-21T04:25:48;99300.34;;;1.84;40.82
47785;BME280;35233;55.686;37.848;2023-11-21T04:28:13;99319.44;;;1.94;40.69
47785;BME280;35233;55.686;37.848;2023-11-21T04:30:38;99309.91;;;1.91;41.19
47785;BME280;35233;55.686;37.848;2023-11-21T04:33:04;99322.94;;;1.93;40.97
47785;BME280;35233;55.686;37.848;2023-11-21T04:35:30;99317.72;;;1.90;40.80
47785;BME280;35233;55.686;37.848;2023-11-21T04:37:55;99295.97;;;1.77;40.62
47785;BME280;35233;55.686;37.848;2023-11-21T04:40:22;99319.44;;;1.94;40.67
47785;BME280;35233;55.686;37.848;2023-11-21T04:42:48;99315.97;;;1.86;41.03
47785;BME280;35233;55.686;37.848;2023-11-21T04:45:13;99334.22;;;1.90;41.09
47785;BME280;35233;55.686;37.848;2023-11-21T04:47:39;99331.59;;;1.84;40.86
47785;BME280;35233;55.686;37.848;2023-11-21T04:50:05;99337.69;;;1.88;41.19
47785;BME280;35233;55.686;37.848;2023-11-21T04:52:31;99331.59;;;1.86;40.80
47785;BME280;35233;55.686;37.848;2023-11-21T04:55:00;99335.06;;;1.91;40.70
47785;BME280;35233;55.686;37.848;2023-11-21T04:57:27;99319.44;;;1.86;40.92
47785;BME280;35233;55.686;37.848;2023-11-21T04:59:54;99327.25;;;1.91;40.95
47785;BME280;35233;55.686;37.848;2023-11-21T05:02:19;99331.59;;;1.84;41.19
47785;BME280;35233;55.686;37.848;2023-11-21T05:04:46;99326.38;;;1.86;40.89
47785;BME280;35233;55.686;37.848;2023-11-21T05:07:12;99319.41;;;1.71;40.62
47785;BME280;35233;55.686;37.848;2023-11-21T05:09:41;99343.78;;;1.87;40.67
47785;BME280;35233;55.686;37.848;2023-11-21T05:12:09;99342.88;;;1.81;40.99
47785;BME280;35233;55.686;37.848;2023-11-21T05:14:35;99316.81;;;1.63;40.76
47785;BME280;35233;55.686;37.848;2023-11-21T05:17:01;99350.69;;;1.80;40.63
47785;BME280;35233;55.686;37.848;2023-11-21T05:19:26;99344.59;;;1.76;40.93
47785;BME280;35233;55.686;37.848;2023-11-21T05:21:52;99350.69;;;1.86;41.15
47785;BME280;35233;55.686;37.848;2023-11-21T05:24:17;99353.28;;;1.74;40.38
47785;BME280;35233;55.686;37.848;2023-11-21T05:26:43;99351.56;;;1.82;40.95
47785;BME280;35233;55.686;37.848;2023-11-21T05:29:08;99352.41;;;1.79;41.06
47785;BME280;35233;55.686;37.848;2023-11-21T05:31:36;99350.66;;;1.74;40.84
47785;BME280;35233;55.686;37.848;2023-11-21T05:34:02;99352.41;;;1.73;40.90
47785;BME280;35233;55.686;37.848;2023-11-21T05:36:28;99341.09;;;1.61;40.92
47785;BME280;35233;55.686;37.848;2023-11-21T05:38:53;99328.94;;;1.59;40.90
47785;BME280;35233;55.686;37.848;2023-11-21T05:41:19;99358.50;;;1.75;41.06
47785;BME280;35233;55.686;37.848;2023-11-21T05:43:45;99332.44;;;1.72;40.69
47785;BME280;35233;55.686;37.848;2023-11-21T05:46:10;99355.03;;;1.83;40.87
47785;BME280;35233;55.686;37.848;2023-11-21T05:48:36;99353.28;;;1.77;40.79
47785;BME280;35233;55.686;37.848;2023-11-21T05:51:06;99359.38;;;1.80;41.02
47785;BME280;35233;55.686;37.848;2023-11-21T05:53:33;99361.09;;;1.83;40.74
47785;BME280;35233;55.686;37.848;2023-11-21T05:55:59;99365.44;;;1.79;40.76
47785;BME280;35233;55.686;37.848;2023-11-21T05:58:24;99361.09;;;1.75;40.79
47785;BME280;35233;55.686;37.848;2023-11-21T06:00:50;99366.31;;;1.85;40.90
47785;BME280;35233;55.686;37.848;2023-11-21T06:03:15;99368.06;;;1.84;41.10
47785;BME280;35233;55.686;37.848;2023-11-21T06:05:42;99375.03;;;1.87;41.00
47785;BME280;35233;55.686;37.848;2023-11-21T06:08:08;99385.44;;;1.84;40.95
47785;BME280;35233;55.686;37.848;2023-11-21T06:10:34;99376.72;;;1.83;40.90
47785;BME280;35233;55.686;37.848;2023-11-21T06:13:00;99388.94;;;1.96;41.01
47785;BME280;35233;55.686;37.848;2023-11-21T06:15:25;99364.59;;;1.82;40.79
47785;BME280;35233;55.686;37.848;2023-11-21T06:17:51;99374.16;;;2.00;40.58
47785;BME280;35233;55.686;37.848;2023-11-21T06:20:21;99388.91;;;1.95;40.60
47785;BME280;35233;55.686;37.848;2023-11-21T06:22:49;99393.25;;;2.00;40.53
47785;BME280;35233;55.686;37.848;2023-11-21T06:25:15;99391.56;;;2.07;40.89
47785;BME280;35233;55.686;37.848;2023-11-21T06:27:45;99387.19;;;2.12;40.82
47785;BME280;35233;55.686;37.848;2023-11-21T06:30:12;99388.06;;;2.05;40.93
47785;BME280;35233;55.686;37.848;2023-11-21T06:32:38;99376.75;;;1.97;41.17
47785;BME280;35233;55.686;37.848;2023-11-21T06:35:10;99379.38;;;2.03;40.77
47785;BME280;35233;55.686;37.848;2023-11-21T06:37:36;99375.91;;;2.01;40.54
47785;BME280;35233;55.686;37.848;2023-11-21T06:40:02;99391.53;;;2.06;41.07
47785;BME280;35233;55.686;37.848;2023-11-21T06:42:29;99389.81;;;2.11;40.56
47785;BME280;35233;55.686;37.848;2023-11-21T06:44:55;99389.81;;;2.08;40.79
47785;BME280;35233;55.686;37.848;2023-11-21T06:47:25;99397.66;;;2.21;40.96
47785;BME280;35233;55.686;37.848;2023-11-21T06:49:51;99404.59;;;2.22;40.55
47785;BME280;35233;55.686;37.848;2023-11-21T06:52:17;99399.41;;;2.29;40.59
47785;BME280;35233;55.686;37.848;2023-11-21T06:54:44;99401.16;;;2.40;40.65
47785;BME280;35233;55.686;37.848;2023-11-21T06:57:10;99401.16;;;2.40;40.66
47785;BME280;35233;55.686;37.848;2023-11-21T06:59:36;99371.59;;;2.29;40.79
47785;BME280;35233;55.686;37.848;2023-11-21T07:02:02;99392.47;;;2.43;40.65
47785;BME280;35233;55.686;37.848;2023-11-21T07:04:27;99383.75;;;2.41;40.61
47785;BME280;35233;55.686;37.848;2023-11-21T07:06:56;99392.47;;;2.47;40.19
47785;BME280;35233;55.686;37.848;2023-11-21T07:09:21;99395.06;;;2.44;40.54
47785;BME280;35233;55.686;37.848;2023-11-21T07:11:50;99388.97;;;2.48;39.98
47785;BME280;35233;55.686;37.848;2023-11-21T07:14:15;99389.88;;;2.51;39.90
47785;BME280;35233;55.686;37.848;2023-11-21T07:16:42;99384.63;;;2.46;40.22
47785;BME280;35233;55.686;37.848;2023-11-21T07:19:08;99401.16;;;2.45;40.29
47785;BME280;35233;55.686;37.848;2023-11-21T07:21:34;99401.13;;;2.49;40.18
47785;BME280;35233;55.686;37.848;2023-11-21T07:24:00;99392.47;;;2.47;39.97
47785;BME280;35233;55.686;37.848;2023-11-21T07:26:31;99395.91;;;2.56;39.63
47785;BME280;35233;55.686;37.848;2023-11-21T07:28:57;99397.66;;;2.49;39.81
47785;BME280;35233;55.686;37.848;2023-11-21T07:31:23;99395.94;;;2.51;39.85
47785;BME280;35233;55.686;37.848;2023-11-21T07:33:49;99398.56;;;2.51;39.63
47785;BME280;35233;55.686;37.848;2023-11-21T07:36:16;99402.88;;;2.52;40.55
47785;BME280;35233;55.686;37.848;2023-11-21T07:38:43;99393.31;;;2.46;40.05
47785;BME280;35233;55.686;37.848;2023-11-21T07:41:10;99400.28;;;2.51;40.49
47785;BME280;35233;55.686;37.848;2023-11-21T07:43:36;99391.56;;;2.47;39.97
47785;BME280;35233;55.686;37.848;2023-11-21T07:46:02;99401.16;;;2.42;39.81
47785;BME280;35233;55.686;37.848;2023-11-21T07:48:31;99388.97;;;2.35;40.48
47785;BME280;35233;55.686;37.848;2023-11-21T07:50:57;99395.06;;;2.49;40.14
47785;BME280;35233;55.686;37.848;2023-11-21T07:53:25;99398.56;;;2.48;39.67
47785;BME280;35233;55.686;37.848;2023-11-21T07:55:54;99381.16;;;2.41;39.75
47785;BME280;35233;55.686;37.848;2023-11-21T07:58:20;99386.38;;;2.42;39.83
47785;BME280;35233;55.686;37.848;2023-11-21T08:00:46;99383.75;;;2.44;40.28
47785;BME280;35233;55.686;37.848;2023-11-21T08:03:13;99387.25;;;2.52;39.88
47785;BME280;35233;55.686;37.848;2023-11-21T08:05:39;99381.16;;;2.42;39.64
47785;BME280;35233;55.686;37.848;2023-11-21T08:08:05;99385.50;;;2.51;40.02
47785;BME280;35233;55.686;37.848;2023-11-21T08:10:30;99392.44;;;2.61;40.00
47785;BME280;35233;55.686;37.848;2023-11-21T08:12:56;99389.00;;;2.59;39.58
47785;BME280;35233;55.686;37.848;2023-11-21T08:15:21;99386.38;;;2.55;39.95
47785;BME280;35233;55.686;37.848;2023-11-21T08:17:47;99375.94;;;2.41;40.35
47785;BME280;35233;55.686;37.848;2023-11-21T08:20:13;99390.72;;;2.59;39.69
47785;BME280;35233;55.686;37.848;2023-11-21T08:22:42;99394.19;;;2.61;40.43
47785;BME280;35233;55.686;37.848;2023-11-21T08:25:07;99386.38;;;2.56;39.80
47785;BME280;35233;55.686;37.848;2023-11-21T08:27:33;99382.88;;;2.56;39.67
47785;BME280;35233;55.686;37.848;2023-11-21T08:30:00;99390.72;;;2.56;39.44
47785;BME280;35233;55.686;37.848;2023-11-21T08:32:26;99381.16;;;2.61;39.70
47785;BME280;35233;55.686;37.848;2023-11-21T08:34:51;99382.00;;;2.61;39.36
47785;BME280;35233;55.686;37.848;2023-11-21T08:37:17;99389.81;;;2.70;39.38
47785;BME280;35233;55.686;37.848;2023-11-21T08:39:47;99388.97;;;2.71;39.05
47785;BME280;35233;55.686;37.848;2023-11-21T08:42:13;99388.97;;;2.85;38.75
47785;BME280;35233;55.686;37.848;2023-11-21T08:44:40;99393.28;;;2.85;39.61
47785;BME280;35233;55.686;37.848;2023-11-21T08:47:06;99384.63;;;2.78;39.16
47785;BME280;35233;55.686;37.848;2023-11-21T08:49:31;99382.03;;;2.77;39.19
47785;BME280;35233;55.686;37.848;2023-11-21T08:51:58;99393.28;;;2.82;39.09
47785;BME280;35233;55.686;37.848;2023-11-21T08:54:25;99389.81;;;2.84;39.00
47785;BME280;35233;55.686;37.848;2023-11-21T08:56:53;99413.31;;;2.81;39.62
47785;BME280;35233;55.686;37.848;2023-11-21T08:59:20;99397.69;;;2.77;39.61
47785;BME280;35233;55.686;37.848;2023-11-21T09:01:46;99407.25;;;2.82;39.55
47785;BME280;35233;55.686;37.848;2023-11-21T09:04:12;99412.47;;;2.82;39.17
47785;BME280;35233;55.686;37.848;2023-11-21T09:06:39;99388.97;;;2.68;38.88
47785;BME280;35233;55.686;37.848;2023-11-21T09:09:05;99415.94;;;2.77;39.61
47785;BME280;35233;55.686;37.848;2023-11-21T09:11:32;99403.75;;;2.74;39.09
47785;BME280;35233;55.686;37.848;2023-11-21T09:13:59;99405.50;;;2.74;38.75
47785;BME280;35233;55.686;37.848;2023-11-21T09:16:25;99424.59;;;2.76;39.41
47785;BME280;35233;55.686;37.848;2023-11-21T09:18:50;99410.69;;;2.64;39.45
47785;BME280;35233;55.686;37.848;2023-11-21T09:21:16;99418.53;;;2.74;38.81
47785;BME280;35233;55.686;37.848;2023-11-21T09:23:44;99418.53;;;2.80;38.92
47785;BME280;35233;55.686;37.848;2023-11-21T09:26:09;99402.88;;;2.66;39.07
47785;BME280;35233;55.686;37.848;2023-11-21T09:28:35;99413.31;;;2.70;38.94
47785;BME280;35233;55.686;37.848;2023-11-21T09:31:04;99422.03;;;2.74;39.05
47785;BME280;35233;55.686;37.848;2023-11-21T09:33:33;99421.13;;;2.75;38.84
47785;BME280;35233;55.686;37.848;2023-11-21T09:35:59;99424.63;;;2.69;38.98
47785;BME280;35233;55.686;37.848;2023-11-21T09:38:25;99421.13;;;2.64;39.63
47785;BME280;35233;55.686;37.848;2023-11-21T09:40:51;99422.88;;;2.68;39.18
47785;BME280;35233;55.686;37.848;2023-11-21T09:43:19;99415.94;;;2.66;39.11
47785;BME280;35233;55.686;37.848;2023-11-21T09:45:54;99424.63;;;2.71;38.94
47785;BME280;35233;55.686;37.848;2023-11-21T09:48:23;99422.88;;;2.75;39.56
47785;BME280;35233;55.686;37.848;2023-11-21T09:50:50;99430.69;;;2.78;38.95
47785;BME280;35233;55.686;37.848;2023-11-21T09:53:19;99435.94;;;2.71;39.35
47785;BME280;35233;55.686;37.848;2023-11-21T09:55:51;99426.34;;;2.78;39.18
47785;BME280;35233;55.686;37.848;2023-11-21T09:58:18;99428.97;;;2.77;39.26
47785;BME280;35233;55.686;37.848;2023-11-21T10:00:46;99427.22;;;2.74;39.21
47785;BME280;35233;55.686;37.848;2023-11-21T10:03:12;99434.19;;;2.72;39.49
47785;BME280;35233;55.686;37.848;2023-11-21T10:05:39;99441.13;;;2.70;39.61
47785;BME280;35233;55.686;37.848;2023-11-21T10:08:08;99444.59;;;2.70;38.82
47785;BME280;35233;55.686;37.848;2023-11-21T10:10:45;99435.91;;;2.61;39.37
47785;BME280;35233;55.686;37.848;2023-11-21T10:13:12;99435.06;;;2.68;39.38
47785;BME280;35233;55.686;37.848;2023-11-21T10:15:38;99423.72;;;2.64;39.08
47785;BME280;35233;55.686;37.848;2023-11-21T10:18:09;99432.44;;;2.59;39.61
47785;BME280;35233;55.686;37.848;2023-11-21T10:20:37;99427.22;;;2.60;39.40
47785;BME280;35233;55.686;37.848;2023-11-21T10:23:03;99426.38;;;2.63;38.98
47785;BME280;35233;55.686;37.848;2023-11-21T10:25:30;99422.88;;;2.61;39.70
47785;BME280;35233;55.686;37.848;2023-11-21T10:28:01;99410.72;;;2.57;39.43
47785;BME280;35233;55.686;37.848;2023-11-21T10:30:34;99427.25;;;2.65;39.51
47785;BME280;35233;55.686;37.848;2023-11-21T10:33:05;99429.84;;;2.60;38.97
47785;BME280;35233;55.686;37.848;2023-11-21T10:35:47;99422.00;;;2.51;39.46
47785;BME280;35233;55.686;37.848;2023-11-21T10:38:19;99416.78;;;2.43;39.67
47785;BME280;35233;55.686;37.848;2023-11-21T10:40:48;99418.53;;;2.55;39.77
47785;BME280;35233;55.686;37.848;2023-11-21T10:43:14;99421.16;;;2.63;39.18
47785;BME280;35233;55.686;37.848;2023-11-21T10:45:41;99408.09;;;2.52;39.36
47785;BME280;35233;55.686;37.848;2023-11-21T10:48:08;99423.72;;;2.64;39.37
47785;BME280;35233;55.686;37.848;2023-11-21T10:50:36;99429.84;;;2.63;39.68
47785;BME280;35233;55.686;37.848;2023-11-21T10:53:05;99420.25;;;2.70;39.72
47785;BME280;35233;55.686;37.848;2023-11-21T10:55:32;99425.50;;;2.65;39.47
47785;BME280;35233;55.686;37.848;2023-11-21T10:58:00;99422.00;;;2.59;39.62
47785;BME280;35233;55.686;37.848;2023-11-21T11:00:28;99422.84;;;2.50;39.66
47785;BME280;35233;55.686;37.848;2023-11-21T11:02:54;99431.59;;;2.60;40.06
47785;BME280;35233;55.686;37.848;2023-11-21T11:06:12;99435.06;;;2.62;39.34
47785;BME280;35233;55.686;37.848;2023-11-21T11:08:53;99439.38;;;2.58;40.02
47785;BME280;35233;55.686;37.848;2023-11-21T11:11:19;99424.63;;;2.80;39.46
47785;BME280;35233;55.686;37.848;2023-11-21T11:13:44;99443.75;;;2.88;40.29
47785;BME280;35233;55.686;37.848;2023-11-21T11:16:11;99446.34;;;2.75;40.96
47785;BME280;35233;55.686;37.848;2023-11-21T11:18:37;99445.47;;;2.69;40.72
47785;BME280;35233;55.686;37.848;2023-11-21T11:26:52;99450.72;;;2.65;40.21
47785;BME280;35233;55.686;37.848;2023-11-21T11:29:41;99453.28;;;2.59;40.83
47785;BME280;35233;55.686;37.848;2023-11-21T11:33:14;99448.09;;;2.60;40.52
47785;BME280;35233;55.686;37.848;2023-11-21T11:35:46;99439.38;;;2.55;40.99
47785;BME280;35233;55.686;37.848;2023-11-21T11:38:16;99447.22;;;2.63;40.79
47785;BME280;35233;55.686;37.848;2023-11-21T11:40:45;99440.25;;;2.51;40.50
47785;BME280;35233;55.686;37.848;2023-11-21T11:43:10;99435.91;;;2.50;40.42
47785;BME280;35233;55.686;37.848;2023-11-21T11:45:37;99444.59;;;2.58;40.52
47785;BME280;35233;55.686;37.848;2023-11-21T11:48:17;99446.34;;;2.64;40.28
47785;BME280;35233;55.686;37.848;2023-11-21T11:51:04;99454.16;;;2.64;40.71
47785;BME280;35233;55.686;37.848;2023-11-21T11:53:41;99461.13;;;2.63;40.59
47785;BME280;35233;55.686;37.848;2023-11-21T11:56:24;99468.94;;;2.60;41.34
47785;BME280;35233;55.686;37.848;2023-11-21T11:58:56;99473.31;;;2.63;40.88
47785;BME280;35233;55.686;37.848;2023-11-21T12:01:26;99471.56;;;2.71;41.05
47785;BME280;35233;55.686;37.848;2023-11-21T12:06:40;99464.59;;;2.55;41.29
47785;BME280;35233;55.686;37.848;2023-11-21T12:09:06;99460.25;;;2.58;40.98
47785;BME280;35233;55.686;37.848;2023-11-21T12:11:32;99466.31;;;2.59;41.13
47785;BME280;35233;55.686;37.848;2023-11-21T12:14:01;99460.25;;;2.55;41.17
47785;BME280;35233;55.686;37.848;2023-11-21T12:16:27;99463.75;;;2.57;40.51
47785;BME280;35233;55.686;37.848;2023-11-21T12:18:53;99478.53;;;2.60;40.71
47785;BME280;35233;55.686;37.848;2023-11-21T12:21:20;99477.66;;;2.56;41.02
47785;BME280;35233;55.686;37.848;2023-11-21T12:23:46;99478.53;;;2.60;40.81
47785;BME280;35233;55.686;37.848;2023-11-21T12:26:13;99483.72;;;2.60;41.18
47785;BME280;35233;55.686;37.848;2023-11-21T12:28:39;99472.44;;;2.56;40.86
47785;BME280;35233;55.686;37.848;2023-11-21T12:31:04;99486.31;;;2.55;41.09
47785;BME280;35233;55.686;37.848;2023-11-21T12:33:35;99484.59;;;2.48;41.54
47785;BME280;35233;55.686;37.848;2023-11-21T12:36:00;99480.25;;;2.48;41.33
47785;BME280;35233;55.686;37.848;2023-11-21T12:38:34;99475.88;;;2.43;40.77
47785;BME280;35233;55.686;37.848;2023-11-21T12:41:00;99478.47;;;2.37;41.06
47785;BME280;35233;55.686;37.848;2023-11-21T12:43:26;99486.31;;;2.40;41.11
47785;BME280;35233;55.686;37.848;2023-11-21T12:46:07;99481.94;;;2.37;41.39
47785;BME280;35233;55.686;37.848;2023-11-21T12:48:40;99483.69;;;2.37;40.82
47785;BME280;35233;55.686;37.848;2023-11-21T12:51:10;99488.03;;;2.32;40.96
47785;BME280;35233;55.686;37.848;2023-11-21T12:53:44;99481.94;;;2.31;41.11
47785;BME280;35233;55.686;37.848;2023-11-21T12:56:12;99492.38;;;2.34;41.42
47785;BME280;35233;55.686;37.848;2023-11-21T12:58:40;99484.56;;;2.34;41.04
47785;BME280;35233;55.686;37.848;2023-11-21T13:01:10;99483.69;;;2.35;40.89
47785;BME280;35233;55.686;37.848;2023-11-21T13:03:38;99492.41;;;2.45;41.27
47785;BME280;35233;55.686;37.848;2023-11-21T13:06:05;99488.91;;;2.41;41.14
47785;BME280;35233;55.686;37.848;2023-11-21T13:08:33;99488.00;;;2.29;41.39
47785;BME280;35233;55.686;37.848;2023-11-21T13:10:59;99493.25;;;2.35;40.96